sensor_id;sensor_type;location;lat;lon;timestamp;P1;durP1;ratioP1;P2;durP2;ratioP2
17347;SDS011;8791;50.876;4.342;2023-03-23T00:00:48;5.20;;;3.57;;
17347;SDS011;8791;50.876;4.342;2023-03-23T00:03:15;7.93;;;3.87;;
17347;SDS011;8791;50.876;4.342;2023-03-23T00:05:43;6.53;;;4.17;;
17347;SDS011;8791;50.876;4.342;2023-03-23T00:08:15;8.23;;;4.57;;
17347;SDS011;8791;50.876;4.342;2023-03-23T00:10:42;7.27;;;4.47;;
17347;SDS011;8791;50.876;4.342;2023-03-23T00:13:09;7.43;;;5.53;;
17347;SDS011;8791;50.876;4.342;2023-03-23T00:15:38;8.40;;;6.10;;
17347;SDS011;8791;50.876;4.342;2023-03-23T00:18:06;8.47;;;5.83;;
17347;SDS011;8791;50.876;4.342;2023-03-23T00:20:33;7.90;;;5.70;;
17347;SDS011;8791;50.876;4.342;2023-03-23T00:23:07;7.77;;;4.97;;
17347;SDS011;8791;50.876;4.342;2023-03-23T00:25:34;5.13;;;4.60;;
17347;SDS011;8791;50.876;4.342;2023-03-23T00:28:00;6.60;;;4.60;;
17347;SDS011;8791;50.876;4.342;2023-03-23T00:30:27;5.43;;;4.90;;
17347;SDS011;8791;50.876;4.342;2023-03-23T00:32:55;4.40;;;4.00;;
17347;SDS011;8791;50.876;4.342;2023-03-23T00:35:22;8.43;;;4.00;;
17347;SDS011;8791;50.876;4.342;2023-03-23T00:37:50;4.73;;;3.40;;
17347;SDS011;8791;50.876;4.342;2023-03-23T00:40:18;5.20;;;4.30;;
17347;SDS011;8791;50.876;4.342;2023-03-23T00:42:45;5.47;;;4.37;;
17347;SDS011;8791;50.876;4.342;2023-03-23T00:45:13;4.57;;;4.00;;
17347;SDS011;8791;50.876;4.342;2023-03-23T00:47:41;5.17;;;3.60;;
17347;SDS011;8791;50.876;4.342;2023-03-23T00:50:11;9.47;;;4.17;;
17347;SDS011;8791;50.876;4.342;2023-03-23T00:52:39;4.43;;;3.70;;
17347;SDS011;8791;50.876;4.342;2023-03-23T00:55:06;4.90;;;4.40;;
17347;SDS011;8791;50.876;4.342;2023-03-23T00:57:35;5.83;;;3.80;;
17347;SDS011;8791;50.876;4.342;2023-03-23T01:00:02;7.50;;;4.17;;
17347;SDS011;8791;50.876;4.342;2023-03-23T01:02:33;6.97;;;4.40;;
17347;SDS011;8791;50.876;4.342;2023-03-23T01:05:00;5.33;;;4.70;;
17347;SDS011;8791;50.876;4.342;2023-03-23T01:07:28;7.17;;;4.20;;
17347;SDS011;8791;50.876;4.342;2023-03-23T01:09:56;5.43;;;3.90;;
17347;SDS011;8791;50.876;4.342;2023-03-23T01:12:25;4.20;;;3.70;;
17347;SDS011;8791;50.876;4.342;2023-03-23T01:14:53;4.57;;;3.60;;
17347;SDS011;8791;50.876;4.342;2023-03-23T01:17:20;4.70;;;3.83;;
17347;SDS011;8791;50.876;4.342;2023-03-23T01:19:47;4.57;;;4.17;;
17347;SDS011;8791;50.876;4.342;2023-03-23T01:22:14;7.33;;;4.10;;
17347;SDS011;8791;50.876;4.342;2023-03-23T01:24:41;5.70;;;4.07;;
17347;SDS011;8791;50.876;4.342;2023-03-23T01:27:07;4.80;;;4.40;;
17347;SDS011;8791;50.876;4.342;2023-03-23T01:29:34;6.80;;;4.53;;
17347;SDS011;8791;50.876;4.342;2023-03-23T01:32:03;6.77;;;3.77;;
17347;SDS011;8791;50.876;4.342;2023-03-23T01:34:30;4.33;;;4.00;;
17347;SDS011;8791;50.876;4.342;2023-03-23T01:36:56;5.13;;;4.07;;
17347;SDS011;8791;50.876;4.342;2023-03-23T01:39:23;6.97;;;4.40;;
17347;SDS011;8791;50.876;4.342;2023-03-23T01:41:50;4.17;;;3.70;;
17347;SDS011;8791;50.876;4.342;2023-03-23T01:47:22;5.63;;;4.00;;
17347;SDS011;8791;50.876;4.342;2023-03-23T01:49:51;3.80;;;3.50;;
17347;SDS011;8791;50.876;4.342;2023-03-23T01:52:19;5.30;;;3.67;;
17347;SDS011;8791;50.876;4.342;2023-03-23T01:54:50;4.97;;;3.53;;
17347;SDS011;8791;50.876;4.342;2023-03-23T01:57:19;4.87;;;3.40;;
17347;SDS011;8791;50.876;4.342;2023-03-23T01:59:52;3.57;;;3.07;;
17347;SDS011;8791;50.876;4.342;2023-03-23T02:02:21;4.33;;;3.90;;
17347;SDS011;8791;50.876;4.342;2023-03-23T02:04:51;4.10;;;3.43;;
17347;SDS011;8791;50.876;4.342;2023-03-23T02:07:21;3.90;;;3.50;;
17347;SDS011;8791;50.876;4.342;2023-03-23T02:09:49;7.27;;;3.70;;
17347;SDS011;8791;50.876;4.342;2023-03-23T02:12:16;4.47;;;3.17;;
17347;SDS011;8791;50.876;4.342;2023-03-23T02:14:43;5.67;;;3.20;;
17347;SDS011;8791;50.876;4.342;2023-03-23T02:17:12;4.80;;;2.53;;
17347;SDS011;8791;50.876;4.342;2023-03-23T02:19:55;5.13;;;2.70;;
17347;SDS011;8791;50.876;4.342;2023-03-23T02:28:48;2.73;;;2.27;;
17347;SDS011;8791;50.876;4.342;2023-03-23T02:31:40;2.73;;;2.07;;
17347;SDS011;8791;50.876;4.342;2023-03-23T02:34:15;2.93;;;1.83;;
17347;SDS011;8791;50.876;4.342;2023-03-23T02:36:45;4.63;;;2.03;;
17347;SDS011;8791;50.876;4.342;2023-03-23T02:39:17;2.20;;;1.80;;
17347;SDS011;8791;50.876;4.342;2023-03-23T02:41:49;2.80;;;1.57;;
17347;SDS011;8791;50.876;4.342;2023-03-23T02:44:18;3.53;;;2.20;;
17347;SDS011;8791;50.876;4.342;2023-03-23T02:46:47;2.47;;;1.70;;
17347;SDS011;8791;50.876;4.342;2023-03-23T02:49:16;1.73;;;1.30;;
17347;SDS011;8791;50.876;4.342;2023-03-23T02:51:46;4.90;;;2.00;;
17347;SDS011;8791;50.876;4.342;2023-03-23T02:54:15;3.47;;;1.80;;
17347;SDS011;8791;50.876;4.342;2023-03-23T02:56:45;4.80;;;1.83;;
17347;SDS011;8791;50.876;4.342;2023-03-23T02:59:13;4.90;;;1.40;;
17347;SDS011;8791;50.876;4.342;2023-03-23T03:01:55;1.80;;;1.20;;
17347;SDS011;8791;50.876;4.342;2023-03-23T03:04:28;2.23;;;1.40;;
17347;SDS011;8791;50.876;4.342;2023-03-23T03:07:11;2.63;;;1.40;;
17347;SDS011;8791;50.876;4.342;2023-03-23T03:09:50;2.57;;;1.40;;
17347;SDS011;8791;50.876;4.342;2023-03-23T03:12:25;3.37;;;1.60;;
17347;SDS011;8791;50.876;4.342;2023-03-23T03:14:58;3.17;;;1.43;;
17347;SDS011;8791;50.876;4.342;2023-03-23T03:17:35;2.20;;;1.40;;
17347;SDS011;8791;50.876;4.342;2023-03-23T03:20:10;3.97;;;1.60;;
17347;SDS011;8791;50.876;4.342;2023-03-23T03:22:39;3.87;;;1.30;;
17347;SDS011;8791;50.876;4.342;2023-03-23T03:25:09;3.17;;;1.50;;
17347;SDS011;8791;50.876;4.342;2023-03-23T03:27:39;4.07;;;1.50;;
17347;SDS011;8791;50.876;4.342;2023-03-23T03:30:07;1.67;;;1.50;;
17347;SDS011;8791;50.876;4.342;2023-03-23T03:32:38;3.17;;;1.20;;
17347;SDS011;8791;50.876;4.342;2023-03-23T03:35:12;2.27;;;1.43;;
17347;SDS011;8791;50.876;4.342;2023-03-23T03:37:40;3.70;;;1.50;;
17347;SDS011;8791;50.876;4.342;2023-03-23T03:40:09;3.10;;;1.40;;
17347;SDS011;8791;50.876;4.342;2023-03-23T03:42:38;5.43;;;1.47;;
17347;SDS011;8791;50.876;4.342;2023-03-23T03:45:07;3.57;;;1.33;;
17347;SDS011;8791;50.876;4.342;2023-03-23T03:47:35;5.30;;;1.50;;
17347;SDS011;8791;50.876;4.342;2023-03-23T03:50:02;4.90;;;1.20;;
17347;SDS011;8791;50.876;4.342;2023-03-23T03:52:32;5.17;;;1.70;;
17347;SDS011;8791;50.876;4.342;2023-03-23T03:54:59;3.77;;;1.43;;
17347;SDS011;8791;50.876;4.342;2023-03-23T03:57:26;3.57;;;1.53;;
17347;SDS011;8791;50.876;4.342;2023-03-23T03:59:52;9.13;;;1.60;;
17347;SDS011;8791;50.876;4.342;2023-03-23T04:02:19;4.33;;;1.23;;
17347;SDS011;8791;50.876;4.342;2023-03-23T04:04:46;8.03;;;1.63;;
17347;SDS011;8791;50.876;4.342;2023-03-23T04:07:13;9.43;;;1.87;;
17347;SDS011;8791;50.876;4.342;2023-03-23T04:09:42;5.87;;;2.00;;
17347;SDS011;8791;50.876;4.342;2023-03-23T04:12:11;4.97;;;1.70;;
17347;SDS011;8791;50.876;4.342;2023-03-23T04:14:38;8.67;;;1.77;;
17347;SDS011;8791;50.876;4.342;2023-03-23T04:17:05;12.20;;;1.83;;
17347;SDS011;8791;50.876;4.342;2023-03-23T04:19:32;7.00;;;1.63;;
17347;SDS011;8791;50.876;4.342;2023-03-23T04:21:59;9.80;;;1.87;;
17347;SDS011;8791;50.876;4.342;2023-03-23T04:24:26;8.87;;;1.60;;
17347;SDS011;8791;50.876;4.342;2023-03-23T04:26:58;9.50;;;2.10;;
17347;SDS011;8791;50.876;4.342;2023-03-23T04:29:26;6.13;;;1.83;;
17347;SDS011;8791;50.876;4.342;2023-03-23T04:31:53;6.53;;;2.03;;
17347;SDS011;8791;50.876;4.342;2023-03-23T04:34:21;8.87;;;1.97;;
17347;SDS011;8791;50.876;4.342;2023-03-23T04:36:49;7.80;;;1.60;;
17347;SDS011;8791;50.876;4.342;2023-03-23T04:39:16;5.53;;;2.10;;
17347;SDS011;8791;50.876;4.342;2023-03-23T04:41:43;5.50;;;1.57;;
17347;SDS011;8791;50.876;4.342;2023-03-23T04:44:12;6.80;;;1.60;;
17347;SDS011;8791;50.876;4.342;2023-03-23T04:46:42;7.50;;;2.00;;
17347;SDS011;8791;50.876;4.342;2023-03-23T04:49:14;6.13;;;1.60;;
17347;SDS011;8791;50.876;4.342;2023-03-23T04:51:45;9.63;;;1.90;;
17347;SDS011;8791;50.876;4.342;2023-03-23T04:54:13;4.93;;;1.30;;
17347;SDS011;8791;50.876;4.342;2023-03-23T04:56:40;5.27;;;1.63;;
17347;SDS011;8791;50.876;4.342;2023-03-23T04:59:07;6.07;;;1.80;;
17347;SDS011;8791;50.876;4.342;2023-03-23T05:01:35;3.33;;;1.50;;
17347;SDS011;8791;50.876;4.342;2023-03-23T05:04:03;4.83;;;1.50;;
17347;SDS011;8791;50.876;4.342;2023-03-23T05:06:30;6.00;;;1.47;;
17347;SDS011;8791;50.876;4.342;2023-03-23T05:08:57;6.37;;;1.50;;
17347;SDS011;8791;50.876;4.342;2023-03-23T05:11:24;7.13;;;1.50;;
17347;SDS011;8791;50.876;4.342;2023-03-23T05:13:51;4.10;;;1.43;;
17347;SDS011;8791;50.876;4.342;2023-03-23T05:16:18;5.30;;;1.50;;
17347;SDS011;8791;50.876;4.342;2023-03-23T05:18:46;4.40;;;1.57;;
17347;SDS011;8791;50.876;4.342;2023-03-23T05:21:13;5.20;;;1.70;;
17347;SDS011;8791;50.876;4.342;2023-03-23T05:23:40;7.67;;;2.70;;
17347;SDS011;8791;50.876;4.342;2023-03-23T05:26:07;6.30;;;1.37;;
17347;SDS011;8791;50.876;4.342;2023-03-23T05:28:34;6.67;;;1.70;;
17347;SDS011;8791;50.876;4.342;2023-03-23T05:31:01;5.37;;;1.67;;
17347;SDS011;8791;50.876;4.342;2023-03-23T05:33:28;3.37;;;1.77;;
17347;SDS011;8791;50.876;4.342;2023-03-23T05:35:56;5.47;;;1.43;;
17347;SDS011;8791;50.876;4.342;2023-03-23T05:38:23;7.67;;;1.67;;
17347;SDS011;8791;50.876;4.342;2023-03-23T05:40:49;4.93;;;1.63;;
17347;SDS011;8791;50.876;4.342;2023-03-23T05:43:17;2.20;;;1.23;;
17347;SDS011;8791;50.876;4.342;2023-03-23T05:45:44;7.60;;;1.47;;
17347;SDS011;8791;50.876;4.342;2023-03-23T05:48:10;4.57;;;1.57;;
17347;SDS011;8791;50.876;4.342;2023-03-23T05:50:37;5.13;;;1.53;;
17347;SDS011;8791;50.876;4.342;2023-03-23T05:53:05;8.33;;;1.73;;
17347;SDS011;8791;50.876;4.342;2023-03-23T05:55:32;8.03;;;1.50;;
17347;SDS011;8791;50.876;4.342;2023-03-23T05:57:59;4.77;;;1.30;;
17347;SDS011;8791;50.876;4.342;2023-03-23T06:00:26;7.87;;;2.30;;
17347;SDS011;8791;50.876;4.342;2023-03-23T06:02:55;4.40;;;2.03;;
17347;SDS011;8791;50.876;4.342;2023-03-23T06:05:22;8.93;;;2.20;;
17347;SDS011;8791;50.876;4.342;2023-03-23T06:07:50;7.37;;;2.00;;
17347;SDS011;8791;50.876;4.342;2023-03-23T06:10:19;8.00;;;1.70;;
17347;SDS011;8791;50.876;4.342;2023-03-23T06:12:47;5.77;;;1.67;;
17347;SDS011;8791;50.876;4.342;2023-03-23T06:15:16;4.70;;;1.90;;
17347;SDS011;8791;50.876;4.342;2023-03-23T06:17:44;8.60;;;1.87;;
17347;SDS011;8791;50.876;4.342;2023-03-23T06:20:11;7.30;;;2.10;;
17347;SDS011;8791;50.876;4.342;2023-03-23T06:22:38;4.83;;;1.80;;
17347;SDS011;8791;50.876;4.342;2023-03-23T06:25:06;5.23;;;1.60;;
17347;SDS011;8791;50.876;4.342;2023-03-23T06:27:37;8.07;;;1.57;;
17347;SDS011;8791;50.876;4.342;2023-03-23T06:30:05;9.63;;;1.93;;
17347;SDS011;8791;50.876;4.342;2023-03-23T06:32:32;4.43;;;1.77;;
17347;SDS011;8791;50.876;4.342;2023-03-23T06:35:00;11.50;;;1.73;;
17347;SDS011;8791;50.876;4.342;2023-03-23T06:37:28;9.83;;;2.00;;
17347;SDS011;8791;50.876;4.342;2023-03-23T06:39:55;9.37;;;2.13;;
17347;SDS011;8791;50.876;4.342;2023-03-23T06:42:22;6.43;;;1.93;;
17347;SDS011;8791;50.876;4.342;2023-03-23T06:44:51;8.27;;;2.27;;
17347;SDS011;8791;50.876;4.342;2023-03-23T06:47:21;8.20;;;1.50;;
17347;SDS011;8791;50.876;4.342;2023-03-23T06:49:48;16.43;;;3.33;;
17347;SDS011;8791;50.876;4.342;2023-03-23T06:52:15;7.00;;;1.77;;
17347;SDS011;8791;50.876;4.342;2023-03-23T06:54:42;5.53;;;1.13;;
17347;SDS011;8791;50.876;4.342;2023-03-23T06:57:09;2.00;;;0.83;;
17347;SDS011;8791;50.876;4.342;2023-03-23T06:59:36;4.70;;;1.37;;
17347;SDS011;8791;50.876;4.342;2023-03-23T07:02:04;7.77;;;2.23;;
17347;SDS011;8791;50.876;4.342;2023-03-23T07:04:31;9.30;;;8.63;;
17347;SDS011;8791;50.876;4.342;2023-03-23T07:06:58;13.17;;;12.47;;
17347;SDS011;8791;50.876;4.342;2023-03-23T07:09:25;14.13;;;13.37;;
17347;SDS011;8791;50.876;4.342;2023-03-23T07:11:52;15.47;;;14.67;;
17347;SDS011;8791;50.876;4.342;2023-03-23T07:14:19;21.83;;;20.53;;
17347;SDS011;8791;50.876;4.342;2023-03-23T07:16:46;23.60;;;22.20;;
17347;SDS011;8791;50.876;4.342;2023-03-23T07:19:15;23.90;;;22.60;;
17347;SDS011;8791;50.876;4.342;2023-03-23T07:21:42;24.23;;;22.93;;
17347;SDS011;8791;50.876;4.342;2023-03-23T07:24:10;24.53;;;23.33;;
17347;SDS011;8791;50.876;4.342;2023-03-23T07:26:38;24.30;;;22.80;;
17347;SDS011;8791;50.876;4.342;2023-03-23T07:29:06;28.27;;;26.53;;
17347;SDS011;8791;50.876;4.342;2023-03-23T07:31:33;28.87;;;27.00;;
17347;SDS011;8791;50.876;4.342;2023-03-23T07:34:00;27.30;;;25.63;;
17347;SDS011;8791;50.876;4.342;2023-03-23T07:36:29;27.30;;;25.67;;
17347;SDS011;8791;50.876;4.342;2023-03-23T07:38:56;25.23;;;23.50;;
17347;SDS011;8791;50.876;4.342;2023-03-23T07:41:24;28.17;;;26.30;;
17347;SDS011;8791;50.876;4.342;2023-03-23T07:43:51;26.10;;;24.40;;
17347;SDS011;8791;50.876;4.342;2023-03-23T07:46:18;25.70;;;24.10;;
17347;SDS011;8791;50.876;4.342;2023-03-23T07:48:45;26.03;;;24.57;;
17347;SDS011;8791;50.876;4.342;2023-03-23T07:51:12;27.47;;;25.47;;
17347;SDS011;8791;50.876;4.342;2023-03-23T07:53:42;27.83;;;25.93;;
17347;SDS011;8791;50.876;4.342;2023-03-23T07:56:11;28.33;;;26.53;;
17347;SDS011;8791;50.876;4.342;2023-03-23T07:58:39;26.50;;;24.50;;
17347;SDS011;8791;50.876;4.342;2023-03-23T08:01:06;26.17;;;24.07;;
17347;SDS011;8791;50.876;4.342;2023-03-23T08:03:33;26.57;;;24.37;;
17347;SDS011;8791;50.876;4.342;2023-03-23T08:06:01;24.87;;;23.30;;
17347;SDS011;8791;50.876;4.342;2023-03-23T08:08:27;23.30;;;21.80;;
17347;SDS011;8791;50.876;4.342;2023-03-23T08:10:56;24.00;;;22.20;;
17347;SDS011;8791;50.876;4.342;2023-03-23T08:13:24;26.83;;;25.00;;
17347;SDS011;8791;50.876;4.342;2023-03-23T08:15:51;22.80;;;21.37;;
17347;SDS011;8791;50.876;4.342;2023-03-23T08:18:18;23.80;;;22.47;;
17347;SDS011;8791;50.876;4.342;2023-03-23T08:20:51;18.97;;;17.50;;
17347;SDS011;8791;50.876;4.342;2023-03-23T08:23:18;12.93;;;12.07;;
17347;SDS011;8791;50.876;4.342;2023-03-23T08:25:46;13.30;;;12.00;;
17347;SDS011;8791;50.876;4.342;2023-03-23T08:28:15;12.83;;;12.13;;
17347;SDS011;8791;50.876;4.342;2023-03-23T08:30:41;12.57;;;11.63;;
17347;SDS011;8791;50.876;4.342;2023-03-23T08:33:09;10.97;;;10.13;;
17347;SDS011;8791;50.876;4.342;2023-03-23T08:35:37;13.63;;;12.60;;
17347;SDS011;8791;50.876;4.342;2023-03-23T08:38:04;15.40;;;14.43;;
17347;SDS011;8791;50.876;4.342;2023-03-23T08:40:31;12.50;;;11.70;;
17347;SDS011;8791;50.876;4.342;2023-03-23T08:42:58;12.97;;;12.20;;
17347;SDS011;8791;50.876;4.342;2023-03-23T08:45:26;9.93;;;9.30;;
17347;SDS011;8791;50.876;4.342;2023-03-23T08:47:53;9.33;;;8.53;;
17347;SDS011;8791;50.876;4.342;2023-03-23T08:50:21;8.33;;;7.93;;
17347;SDS011;8791;50.876;4.342;2023-03-23T08:52:49;8.57;;;8.10;;
17347;SDS011;8791;50.876;4.342;2023-03-23T08:55:18;8.33;;;7.83;;
17347;SDS011;8791;50.876;4.342;2023-03-23T08:57:45;9.90;;;7.70;;
17347;SDS011;8791;50.876;4.342;2023-03-23T09:00:13;8.30;;;7.80;;
17347;SDS011;8791;50.876;4.342;2023-03-23T09:02:44;8.27;;;7.60;;
17347;SDS011;8791;50.876;4.342;2023-03-23T09:05:13;7.80;;;7.30;;
17347;SDS011;8791;50.876;4.342;2023-03-23T09:07:41;8.97;;;8.17;;
17347;SDS011;8791;50.876;4.342;2023-03-23T09:10:09;7.33;;;6.83;;
17347;SDS011;8791;50.876;4.342;2023-03-23T09:12:36;5.33;;;4.67;;
17347;SDS011;8791;50.876;4.342;2023-03-23T09:15:04;6.00;;;5.70;;
17347;SDS011;8791;50.876;4.342;2023-03-23T09:17:34;10.87;;;4.60;;
17347;SDS011;8791;50.876;4.342;2023-03-23T09:20:03;7.50;;;3.07;;
17347;SDS011;8791;50.876;4.342;2023-03-23T09:22:35;9.10;;;4.03;;
17347;SDS011;8791;50.876;4.342;2023-03-23T09:25:03;6.00;;;3.80;;
17347;SDS011;8791;50.876;4.342;2023-03-23T09:27:31;4.77;;;4.27;;
17347;SDS011;8791;50.876;4.342;2023-03-23T09:29:58;5.07;;;3.80;;
17347;SDS011;8791;50.876;4.342;2023-03-23T09:32:26;5.07;;;2.33;;
17347;SDS011;8791;50.876;4.342;2023-03-23T09:34:53;3.83;;;2.93;;
17347;SDS011;8791;50.876;4.342;2023-03-23T09:37:22;4.67;;;2.70;;
17347;SDS011;8791;50.876;4.342;2023-03-23T09:39:49;3.07;;;2.70;;
17347;SDS011;8791;50.876;4.342;2023-03-23T09:45:14;2.80;;;1.97;;
17347;SDS011;8791;50.876;4.342;2023-03-23T09:48:00;3.10;;;2.03;;
17347;SDS011;8791;50.876;4.342;2023-03-23T09:50:42;10.63;;;2.23;;
17347;SDS011;8791;50.876;4.342;2023-03-23T09:53:13;2.77;;;2.30;;
17347;SDS011;8791;50.876;4.342;2023-03-23T09:55:44;2.40;;;2.00;;
17347;SDS011;8791;50.876;4.342;2023-03-23T09:58:14;2.87;;;2.30;;
17347;SDS011;8791;50.876;4.342;2023-03-23T10:00:45;3.37;;;2.30;;
17347;SDS011;8791;50.876;4.342;2023-03-23T10:03:25;4.70;;;2.30;;
17347;SDS011;8791;50.876;4.342;2023-03-23T10:05:57;5.70;;;2.37;;
17347;SDS011;8791;50.876;4.342;2023-03-23T10:08:25;5.27;;;1.93;;
17347;SDS011;8791;50.876;4.342;2023-03-23T10:10:57;4.00;;;1.87;;
17347;SDS011;8791;50.876;4.342;2023-03-23T10:13:32;4.93;;;2.50;;
17347;SDS011;8791;50.876;4.342;2023-03-23T10:16:09;3.40;;;2.40;;
17347;SDS011;8791;50.876;4.342;2023-03-23T10:18:41;8.63;;;2.37;;
17347;SDS011;8791;50.876;4.342;2023-03-23T10:21:13;4.67;;;2.20;;
17347;SDS011;8791;50.876;4.342;2023-03-23T10:23:49;7.10;;;2.13;;
17347;SDS011;8791;50.876;4.342;2023-03-23T10:26:27;4.33;;;1.97;;
17347;SDS011;8791;50.876;4.342;2023-03-23T10:29:03;4.40;;;1.70;;
17347;SDS011;8791;50.876;4.342;2023-03-23T10:31:38;4.60;;;2.10;;
17347;SDS011;8791;50.876;4.342;2023-03-23T10:34:09;6.17;;;2.30;;
17347;SDS011;8791;50.876;4.342;2023-03-23T10:36:41;6.87;;;2.67;;
17347;SDS011;8791;50.876;4.342;2023-03-23T10:39:18;5.47;;;2.03;;
17347;SDS011;8791;50.876;4.342;2023-03-23T10:41:47;2.73;;;2.03;;
17347;SDS011;8791;50.876;4.342;2023-03-23T10:44:15;6.87;;;2.17;;
17347;SDS011;8791;50.876;4.342;2023-03-23T10:46:44;7.17;;;2.23;;
17347;SDS011;8791;50.876;4.342;2023-03-23T10:49:18;9.73;;;2.43;;
17347;SDS011;8791;50.876;4.342;2023-03-23T10:51:52;4.27;;;1.60;;
17347;SDS011;8791;50.876;4.342;2023-03-23T10:54:27;6.30;;;2.40;;
17347;SDS011;8791;50.876;4.342;2023-03-23T10:56:58;3.60;;;2.00;;
17347;SDS011;8791;50.876;4.342;2023-03-23T10:59:26;5.53;;;2.23;;
17347;SDS011;8791;50.876;4.342;2023-03-23T11:01:55;4.93;;;2.50;;
17347;SDS011;8791;50.876;4.342;2023-03-23T11:04:24;6.47;;;2.47;;
17347;SDS011;8791;50.876;4.342;2023-03-23T11:06:52;10.23;;;2.67;;
17347;SDS011;8791;50.876;4.342;2023-03-23T11:09:34;8.13;;;2.67;;
17347;SDS011;8791;50.876;4.342;2023-03-23T11:12:02;11.20;;;2.67;;
17347;SDS011;8791;50.876;4.342;2023-03-23T11:14:30;7.00;;;2.67;;
17347;SDS011;8791;50.876;4.342;2023-03-23T11:17:00;9.40;;;2.03;;
17347;SDS011;8791;50.876;4.342;2023-03-23T11:19:28;7.87;;;2.43;;
17347;SDS011;8791;50.876;4.342;2023-03-23T11:21:58;10.40;;;2.40;;
17347;SDS011;8791;50.876;4.342;2023-03-23T11:24:34;13.87;;;2.80;;
17347;SDS011;8791;50.876;4.342;2023-03-23T11:27:03;3.67;;;1.90;;
17347;SDS011;8791;50.876;4.342;2023-03-23T11:29:33;7.20;;;2.43;;
17347;SDS011;8791;50.876;4.342;2023-03-23T11:32:04;8.47;;;2.60;;
17347;SDS011;8791;50.876;4.342;2023-03-23T11:34:36;8.53;;;3.30;;
17347;SDS011;8791;50.876;4.342;2023-03-23T11:37:08;7.23;;;2.67;;
17347;SDS011;8791;50.876;4.342;2023-03-23T11:39:48;12.43;;;2.77;;
17347;SDS011;8791;50.876;4.342;2023-03-23T11:42:20;6.87;;;2.90;;
17347;SDS011;8791;50.876;4.342;2023-03-23T11:44:52;5.70;;;2.25;;
17347;SDS011;8791;50.876;4.342;2023-03-23T11:47:22;8.18;;;2.40;;
17347;SDS011;8791;50.876;4.342;2023-03-23T11:49:55;9.68;;;2.90;;
17347;SDS011;8791;50.876;4.342;2023-03-23T11:52:39;6.57;;;2.38;;
17347;SDS011;8791;50.876;4.342;2023-03-23T11:55:11;8.13;;;2.20;;
17347;SDS011;8791;50.876;4.342;2023-03-23T11:57:42;6.78;;;2.03;;
17347;SDS011;8791;50.876;4.342;2023-03-23T12:00:13;8.18;;;2.45;;
17347;SDS011;8791;50.876;4.342;2023-03-23T12:05:38;8.95;;;1.95;;
17347;SDS011;8791;50.876;4.342;2023-03-23T12:08:24;6.57;;;1.87;;
17347;SDS011;8791;50.876;4.342;2023-03-23T12:11:03;8.20;;;2.13;;
17347;SDS011;8791;50.876;4.342;2023-03-23T12:13:48;4.65;;;2.08;;
17347;SDS011;8791;50.876;4.342;2023-03-23T12:16:30;7.33;;;2.30;;
17347;SDS011;8791;50.876;4.342;2023-03-23T12:19:08;4.00;;;1.30;;
17347;SDS011;8791;50.876;4.342;2023-03-23T12:21:47;8.23;;;2.30;;
17347;SDS011;8791;50.876;4.342;2023-03-23T12:24:25;5.47;;;1.70;;
17347;SDS011;8791;50.876;4.342;2023-03-23T12:27:08;6.55;;;2.10;;
17347;SDS011;8791;50.876;4.342;2023-03-23T12:29:59;9.13;;;2.28;;
17347;SDS011;8791;50.876;4.342;2023-03-23T12:32:50;10.23;;;1.88;;
17347;SDS011;8791;50.876;4.342;2023-03-23T12:35:41;7.53;;;2.00;;
17347;SDS011;8791;50.876;4.342;2023-03-23T12:38:22;8.55;;;2.15;;
17347;SDS011;8791;50.876;4.342;2023-03-23T12:41:01;6.57;;;2.07;;
17347;SDS011;8791;50.876;4.342;2023-03-23T12:43:37;6.80;;;1.80;;
17347;SDS011;8791;50.876;4.342;2023-03-23T12:46:14;10.05;;;2.35;;
17347;SDS011;8791;50.876;4.342;2023-03-23T12:49:06;6.38;;;2.90;;
17347;SDS011;8791;50.876;4.342;2023-03-23T12:51:40;9.45;;;2.28;;
17347;SDS011;8791;50.876;4.342;2023-03-23T12:54:16;8.93;;;2.17;;
17347;SDS011;8791;50.876;4.342;2023-03-23T12:56:50;11.90;;;2.30;;
17347;SDS011;8791;50.876;4.342;2023-03-23T12:59:25;10.50;;;2.30;;
17347;SDS011;8791;50.876;4.342;2023-03-23T13:02:01;7.55;;;2.17;;
17347;SDS011;8791;50.876;4.342;2023-03-23T13:04:36;10.77;;;3.20;;
17347;SDS011;8791;50.876;4.342;2023-03-23T13:07:07;11.18;;;2.70;;
17347;SDS011;8791;50.876;4.342;2023-03-23T13:09:43;9.13;;;2.72;;
17347;SDS011;8791;50.876;4.342;2023-03-23T13:12:15;4.43;;;1.85;;
17347;SDS011;8791;50.876;4.342;2023-03-23T13:14:47;6.47;;;2.20;;
17347;SDS011;8791;50.876;4.342;2023-03-23T13:17:24;7.22;;;2.55;;
17347;SDS011;8791;50.876;4.342;2023-03-23T13:20:05;7.40;;;2.28;;
17347;SDS011;8791;50.876;4.342;2023-03-23T13:22:52;9.30;;;2.70;;
17347;SDS011;8791;50.876;4.342;2023-03-23T13:25:25;10.27;;;2.53;;
17347;SDS011;8791;50.876;4.342;2023-03-23T13:28:05;6.28;;;2.25;;
17347;SDS011;8791;50.876;4.342;2023-03-23T13:30:41;8.95;;;2.10;;
17347;SDS011;8791;50.876;4.342;2023-03-23T13:33:19;8.07;;;2.20;;
17347;SDS011;8791;50.876;4.342;2023-03-23T13:35:48;15.20;;;2.10;;
17347;SDS011;8791;50.876;4.342;2023-03-23T13:38:17;7.32;;;2.05;;
17347;SDS011;8791;50.876;4.342;2023-03-23T13:40:46;8.38;;;2.00;;
17347;SDS011;8791;50.876;4.342;2023-03-23T13:43:24;8.75;;;2.35;;
17347;SDS011;8791;50.876;4.342;2023-03-23T13:46:07;8.00;;;2.00;;
17347;SDS011;8791;50.876;4.342;2023-03-23T13:48:43;13.82;;;2.47;;
17347;SDS011;8791;50.876;4.342;2023-03-23T13:51:32;7.18;;;2.08;;
17347;SDS011;8791;50.876;4.342;2023-03-23T13:54:05;10.73;;;2.97;;
17347;SDS011;8791;50.876;4.342;2023-03-23T13:56:52;9.07;;;1.95;;
17347;SDS011;8791;50.876;4.342;2023-03-23T13:59:35;8.32;;;2.03;;
17347;SDS011;8791;50.876;4.342;2023-03-23T14:02:28;9.50;;;2.05;;
17347;SDS011;8791;50.876;4.342;2023-03-23T14:05:08;9.40;;;2.47;;
17347;SDS011;8791;50.876;4.342;2023-03-23T14:07:51;9.88;;;2.10;;
17347;SDS011;8791;50.876;4.342;2023-03-23T14:10:21;10.32;;;2.50;;
17347;SDS011;8791;50.876;4.342;2023-03-23T14:12:50;6.03;;;2.00;;
17347;SDS011;8791;50.876;4.342;2023-03-23T14:15:19;6.93;;;2.03;;
17347;SDS011;8791;50.876;4.342;2023-03-23T14:17:48;10.70;;;2.28;;
17347;SDS011;8791;50.876;4.342;2023-03-23T14:20:19;8.70;;;2.40;;
17347;SDS011;8791;50.876;4.342;2023-03-23T14:22:53;7.20;;;2.55;;
17347;SDS011;8791;50.876;4.342;2023-03-23T14:25:21;9.52;;;2.63;;
17347;SDS011;8791;50.876;4.342;2023-03-23T14:27:52;6.80;;;2.47;;
17347;SDS011;8791;50.876;4.342;2023-03-23T14:30:20;7.57;;;2.45;;
17347;SDS011;8791;50.876;4.342;2023-03-23T14:32:51;11.32;;;2.63;;
17347;SDS011;8791;50.876;4.342;2023-03-23T14:35:20;6.63;;;2.30;;
17347;SDS011;8791;50.876;4.342;2023-03-23T14:37:51;10.10;;;2.77;;
17347;SDS011;8791;50.876;4.342;2023-03-23T14:40:18;7.87;;;2.20;;
17347;SDS011;8791;50.876;4.342;2023-03-23T14:42:45;13.63;;;3.25;;
17347;SDS011;8791;50.876;4.342;2023-03-23T14:45:14;9.65;;;2.63;;
17347;SDS011;8791;50.876;4.342;2023-03-23T14:47:43;7.30;;;2.47;;
17347;SDS011;8791;50.876;4.342;2023-03-23T14:50:23;11.73;;;2.10;;
17347;SDS011;8791;50.876;4.342;2023-03-23T14:52:56;11.23;;;2.65;;
17347;SDS011;8791;50.876;4.342;2023-03-23T14:55:25;11.15;;;2.25;;
17347;SDS011;8791;50.876;4.342;2023-03-23T14:57:56;7.13;;;2.00;;
17347;SDS011;8791;50.876;4.342;2023-03-23T15:00:33;6.30;;;2.10;;
17347;SDS011;8791;50.876;4.342;2023-03-23T15:03:10;9.18;;;2.03;;
17347;SDS011;8791;50.876;4.342;2023-03-23T15:05:42;6.40;;;2.27;;
17347;SDS011;8791;50.876;4.342;2023-03-23T15:08:12;7.03;;;2.13;;
17347;SDS011;8791;50.876;4.342;2023-03-23T15:10:41;7.40;;;2.10;;
17347;SDS011;8791;50.876;4.342;2023-03-23T15:13:10;7.32;;;2.05;;
17347;SDS011;8791;50.876;4.342;2023-03-23T15:15:38;16.57;;;5.90;;
17347;SDS011;8791;50.876;4.342;2023-03-23T15:18:13;14.90;;;3.33;;
17347;SDS011;8791;50.876;4.342;2023-03-23T15:20:53;7.63;;;2.60;;
17347;SDS011;8791;50.876;4.342;2023-03-23T15:23:22;6.83;;;2.20;;
17347;SDS011;8791;50.876;4.342;2023-03-23T15:25:53;10.25;;;3.10;;
17347;SDS011;8791;50.876;4.342;2023-03-23T15:28:21;12.38;;;2.60;;
17347;SDS011;8791;50.876;4.342;2023-03-23T15:30:55;7.80;;;2.30;;
17347;SDS011;8791;50.876;4.342;2023-03-23T15:33:23;8.80;;;3.17;;